createdAt,value
2023-04-21T00:04:13.857Z,101533.84
2023-04-21T00:09:15.807Z,101507.69
2023-04-21T00:14:17.923Z,101533.78
2023-04-21T00:19:20.372Z,101523.94
2023-04-21T00:24:22.194Z,101516.09
2023-04-21T00:29:23.779Z,101513.50
2023-04-21T00:34:25.645Z,101511.31
2023-04-21T00:39:27.311Z,101498.75
2023-04-21T00:44:29.090Z,101498.09
2023-04-21T00:49:32.741Z,101478.50
2023-04-21T00:54:36.171Z,101462.06
2023-04-21T00:59:37.868Z,101464.72
2023-04-21T01:04:43.132Z,101463.50
2023-04-21T01:09:44.819Z,101454.41
2023-04-21T01:14:46.483Z,101452.38
2023-04-21T01:19:48.529Z,101455.75
2023-04-21T01:24:50.578Z,101450.25
2023-04-21T01:29:52.814Z,101438.22
2023-04-21T01:34:55.617Z,101442.75
2023-04-21T01:39:59.233Z,101438.13
2023-04-21T01:45:01.496Z,101436.81
2023-04-21T01:50:04.034Z,101426.34
2023-04-21T01:55:06.182Z,101409.53
2023-04-21T02:00:09.990Z,101410.00
2023-04-21T02:05:19.677Z,101407.53
2023-04-21T02:10:21.456Z,101408.34
2023-04-21T02:15:23.216Z,101399.91
2023-04-21T02:20:24.984Z,101397.00
2023-04-21T02:25:26.731Z,101393.34
2023-04-21T02:30:28.518Z,101397.47
2023-04-21T02:35:30.252Z,101393.69
2023-04-21T02:40:32.661Z,101401.84
2023-04-21T02:45:34.327Z,101373.66
2023-04-21T02:50:36.488Z,101376.56
2023-04-21T02:55:38.100Z,101374.84
2023-04-21T03:00:40.115Z,101377.53
2023-04-21T03:05:42.976Z,101386.16
2023-04-21T03:10:44.575Z,101381.84
2023-04-21T03:15:48.931Z,101368.97
2023-04-21T03:20:51.295Z,101371.09
2023-04-21T03:25:52.925Z,101384.81
2023-04-21T03:30:54.554Z,101381.31
2023-04-21T03:35:56.149Z,101358.50
2023-04-21T03:40:57.744Z,101361.41
2023-04-21T03:45:59.405Z,101358.00
2023-04-21T03:51:01.101Z,101344.97
2023-04-21T03:56:02.955Z,101347.28
2023-04-21T04:01:06.537Z,101333.69
2023-04-21T04:06:08.150Z,101325.91
2023-04-21T04:11:09.784Z,101336.31
2023-04-21T04:16:12.579Z,101342.34
2023-04-21T04:21:14.231Z,101348.03
2023-04-21T04:26:16.166Z,101335.69
2023-04-21T04:31:18.046Z,101314.06
2023-04-21T04:36:19.981Z,101332.69
2023-04-21T04:41:22.593Z,101320.06
2023-04-21T04:46:24.847Z,101318.38
2023-04-21T04:51:26.872Z,101317.63
2023-04-21T04:56:30.719Z,101314.28
2023-04-21T05:01:32.408Z,101315.16
2023-04-21T05:06:34.192Z,101331.31
2023-04-21T05:11:35.845Z,101333.69
2023-04-21T05:16:37.628Z,101331.75
2023-04-21T05:21:39.369Z,101326.94
2023-04-21T05:26:43.954Z,101337.56
2023-04-21T05:31:45.714Z,101333.78
2023-04-21T05:36:48.997Z,101349.09
2023-04-21T05:41:50.664Z,101341.00
2023-04-21T05:46:52.337Z,101331.09
2023-04-21T05:51:53.942Z,101341.88
2023-04-21T05:56:55.718Z,101345.09
2023-04-21T06:01:57.494Z,101337.19
2023-04-21T06:07:07.418Z,101339.59
2023-04-21T06:12:09.095Z,101349.44
2023-04-21T06:17:10.908Z,101347.13
2023-04-21T06:22:12.502Z,101340.41
2023-04-21T06:27:14.557Z,101342.84
2023-04-21T06:32:16.136Z,101342.88
2023-04-21T06:37:18.188Z,101341.66
2023-04-21T06:42:19.899Z,101352.00
2023-04-21T06:47:21.734Z,101336.84
2023-04-21T06:52:23.540Z,101343.38
2023-04-21T06:57:25.114Z,101335.94
2023-04-21T07:02:26.816Z,101338.84
2023-04-21T07:07:28.473Z,101329.09
2023-04-21T07:12:30.317Z,101328.81
2023-04-21T07:17:32.027Z,101349.28
2023-04-21T07:22:34.663Z,101337.84
2023-04-21T07:27:37.712Z,101318.72
2023-04-21T07:32:39.356Z,101320.16
2023-04-21T07:37:42.919Z,101322.41
2023-04-21T07:42:44.528Z,101339.84
2023-04-21T07:47:46.430Z,101338.28
2023-04-21T07:52:48.223Z,101325.31
2023-04-21T07:57:50.502Z,101336.69
2023-04-21T08:02:55.381Z,101330.88
2023-04-21T08:08:00.523Z,101350.81
2023-04-21T08:13:03.362Z,101346.84
2023-04-21T08:18:05.298Z,101348.38
2023-04-21T08:23:07.071Z,101340.13
2023-04-21T08:28:08.741Z,101334.84
2023-04-21T08:33:13.744Z,101322.94
2023-04-21T08:38:15.774Z,101329.50
2023-04-21T08:43:17.430Z,101335.34
2023-04-21T08:48:22.142Z,101337.06
2023-04-21T08:53:25.250Z,101345.69
2023-04-21T08:58:26.951Z,101344.09
2023-04-21T09:03:29.141Z,101338.41
2023-04-21T09:08:31.905Z,101337.91
2023-04-21T09:13:35.963Z,101336.91
2023-04-21T09:18:40.579Z,101339.13
2023-04-21T09:23:50.635Z,101339.44
2023-04-21T09:28:52.967Z,101332.03
2023-04-21T09:33:59.349Z,101331.88
2023-04-21T09:44:09.672Z,101328.09
2023-04-21T09:49:17.703Z,101331.88
2023-04-21T09:59:32.413Z,101317.34
2023-04-21T10:04:36.355Z,101314.53
2023-04-21T10:09:58.166Z,101319.56
2023-04-21T10:15:06.730Z,101323.81
2023-04-21T10:20:09.869Z,101316.88
2023-04-21T10:25:14.357Z,101315.06
2023-04-21T10:30:24.216Z,101305.94
2023-04-21T10:35:26.139Z,101319.00
2023-04-21T10:40:44.844Z,101314.16
2023-04-21T10:45:46.505Z,101308.59
2023-04-21T10:50:48.843Z,101305.69
2023-04-21T10:55:50.644Z,101297.47
2023-04-21T11:00:55.714Z,101296.06
2023-04-21T11:05:57.409Z,101300.78
2023-04-21T11:10:59.029Z,101282.59
2023-04-21T11:16:01.969Z,101289.28
2023-04-21T11:21:18.359Z,101281.72
2023-04-21T11:26:31.615Z,101275.81
2023-04-21T11:31:33.981Z,101263.53
2023-04-21T11:36:37.569Z,101268.78
2023-04-21T11:41:44.038Z,101261.66
2023-04-21T11:46:46.787Z,101250.63
2023-04-21T11:51:50.344Z,101243.41
2023-04-21T11:56:52.348Z,101246.31
2023-04-21T12:01:54.714Z,101237.06
2023-04-21T12:07:01.493Z,101241.59
2023-04-21T12:12:05.465Z,101237.81
2023-04-21T12:17:07.314Z,101229.47
2023-04-21T12:22:09.648Z,101229.25
2023-04-21T12:27:12.811Z,101220.84
2023-04-21T12:32:15.323Z,101205.63
2023-04-21T12:37:18.235Z,101205.22
2023-04-21T12:42:19.895Z,101206.31
2023-04-21T12:47:22.743Z,101193.88
2023-04-21T12:52:24.523Z,101184.66
2023-04-21T12:57:26.352Z,101176.31
2023-04-21T13:02:28.500Z,101169.91
2023-04-21T13:07:31.459Z,101167.41
2023-04-21T13:12:33.498Z,101157.69
2023-04-21T13:17:35.206Z,101161.38
2023-04-21T13:22:36.955Z,101146.22
2023-04-21T13:27:40.062Z,101136.34
2023-04-21T13:32:44.212Z,101135.03
2023-04-21T13:37:45.954Z,101125.25
2023-04-21T13:42:47.701Z,101113.53
2023-04-21T13:47:50.011Z,101113.69
2023-04-21T13:52:51.694Z,101110.66
2023-04-21T13:57:53.356Z,101093.88
2023-04-21T14:02:56.083Z,101091.84
2023-04-21T14:07:59.816Z,101081.38
2023-04-21T14:13:01.415Z,101066.34
2023-04-21T14:18:03.537Z,101063.50
2023-04-21T14:23:05.806Z,101053.28
2023-04-21T14:28:08.813Z,101059.69
2023-04-21T14:33:10.724Z,101052.00
2023-04-21T14:38:12.450Z,101053.28
2023-04-21T14:43:14.066Z,101051.81
2023-04-21T14:48:15.719Z,101037.94
2023-04-21T14:53:17.492Z,101029.81
2023-04-21T14:58:19.495Z,101012.75
2023-04-21T15:03:21.389Z,101008.88
2023-04-21T15:08:23.244Z,101005.69
2023-04-21T15:13:24.945Z,101000.72
2023-04-21T15:18:26.600Z,100983.69
2023-04-21T15:23:29.199Z,100969.56
2023-04-21T15:28:31.152Z,100966.41
2023-04-21T15:33:33.173Z,100951.25
2023-04-21T15:38:34.844Z,100946.97
2023-04-21T15:43:36.536Z,100925.63
2023-04-21T15:48:38.202Z,100919.88
2023-04-21T15:53:47.247Z,100922.00
2023-04-21T15:58:49.710Z,100904.69
2023-04-21T16:03:51.986Z,100895.34
2023-04-21T16:08:53.813Z,100895.53
2023-04-21T16:13:56.393Z,100881.66
2023-04-21T16:18:58.098Z,100872.28
2023-04-21T16:23:59.886Z,100858.84
2023-04-21T16:29:01.676Z,100848.81
2023-04-21T16:34:03.423Z,100853.50
2023-04-21T16:39:05.130Z,100845.97
2023-04-21T16:44:06.729Z,100836.81
2023-04-21T16:49:08.751Z,100831.06
2023-04-21T16:54:14.039Z,100829.13
2023-04-21T16:59:19.617Z,100817.00
2023-04-21T17:04:21.365Z,100811.66
2023-04-21T17:09:23.181Z,100801.66
2023-04-21T17:14:24.966Z,100797.59
2023-04-21T17:19:26.806Z,100801.84
2023-04-21T17:24:35.363Z,100803.53
2023-04-21T17:29:39.908Z,100797.38
2023-04-21T17:34:41.649Z,100799.72
2023-04-21T17:39:43.397Z,100787.34
2023-04-21T17:44:45.073Z,100785.22
2023-04-21T17:49:46.728Z,100775.81
2023-04-21T17:54:48.920Z,100762.59
2023-04-21T17:59:50.713Z,100745.97
2023-04-21T18:04:52.600Z,100746.38
2023-04-21T18:09:54.291Z,100736.16
2023-04-21T18:14:56.090Z,100728.91
2023-04-21T18:19:57.900Z,100719.75
2023-04-21T18:24:59.630Z,100733.59
2023-04-21T18:30:01.376Z,100749.97
2023-04-21T18:35:04.782Z,100752.22
2023-04-21T18:40:07.401Z,100729.69
2023-04-21T18:45:09.630Z,100727.31
2023-04-21T18:50:12.776Z,100745.09
2023-04-21T18:55:15.470Z,100749.53
2023-04-21T19:00:17.221Z,100753.41
2023-04-21T19:05:19.449Z,100743.59
2023-04-21T19:10:21.243Z,100724.06
2023-04-21T19:15:22.854Z,100711.41
2023-04-21T19:20:24.465Z,100756.28
2023-04-21T19:25:26.283Z,100747.34
2023-04-21T19:30:28.456Z,100768.38
2023-04-21T19:35:30.164Z,100777.59
2023-04-21T19:40:32.186Z,100748.75
2023-04-21T19:45:37.761Z,100735.38
2023-04-21T19:50:39.483Z,100726.34
2023-04-21T19:55:43.282Z,100731.81
2023-04-21T20:00:46.360Z,100728.75
2023-04-21T20:05:50.380Z,100724.97
2023-04-21T20:10:52.007Z,100730.34
2023-04-21T20:15:53.662Z,100730.16
2023-04-21T20:20:55.354Z,100728.38
2023-04-21T20:25:58.007Z,100728.38
2023-04-21T20:30:59.870Z,100723.06
2023-04-21T20:36:07.207Z,100718.72
2023-04-21T20:41:09.200Z,100723.53
2023-04-21T20:46:11.182Z,100727.59
2023-04-21T20:51:13.632Z,100725.09
2023-04-21T20:56:15.559Z,100717.13
2023-04-21T21:01:18.212Z,100711.19
2023-04-21T21:06:20.162Z,100705.44
2023-04-21T21:11:21.781Z,100718.34
2023-04-21T21:16:23.713Z,100713.19
2023-04-21T21:21:25.366Z,100699.31
2023-04-21T21:26:27.211Z,100745.47
2023-04-21T21:31:29.390Z,100761.16
2023-04-21T21:36:32.694Z,100756.31
2023-04-21T21:41:34.352Z,100749.75
2023-04-21T21:46:36.403Z,100772.78
2023-04-21T21:51:38.158Z,100764.69
2023-04-21T21:56:39.789Z,100760.03
2023-04-21T22:01:42.059Z,100761.34
2023-04-21T22:06:45.258Z,100749.09
2023-04-21T22:11:46.822Z,100738.06
2023-04-21T22:16:48.921Z,100730.56
2023-04-21T22:21:52.383Z,100723.25
2023-04-21T22:26:53.951Z,100714.97
2023-04-21T22:31:55.735Z,100717.16
2023-04-21T22:36:57.703Z,100724.53
2023-04-21T22:41:59.432Z,100715.25
2023-04-21T22:47:01.185Z,100718.47
2023-04-21T22:52:02.828Z,100690.81
2023-04-21T22:57:04.773Z,100689.72
2023-04-21T23:02:06.544Z,100686.38
2023-04-21T23:07:08.382Z,100687.31
2023-04-21T23:12:10.010Z,100677.75
2023-04-21T23:17:11.749Z,100672.41
2023-04-21T23:22:13.775Z,100659.75
2023-04-21T23:27:15.371Z,100677.81
2023-04-21T23:32:17.201Z,100689.94
2023-04-21T23:37:19.512Z,100697.75
2023-04-21T23:42:21.259Z,100702.56
2023-04-21T23:47:22.851Z,100715.38
2023-04-21T23:52:24.748Z,100714.63
2023-04-21T23:57:26.789Z,100723.34
